createdAt,value
2018-07-23T00:01:39.006Z,4.13
2018-07-23T00:04:22.235Z,3.90
2018-07-23T00:07:04.852Z,3.30
2018-07-23T00:09:47.494Z,3.93
2018-07-23T00:12:29.882Z,3.77
2018-07-23T00:15:13.174Z,3.80
2018-07-23T00:17:56.215Z,3.43
2018-07-23T00:20:38.933Z,3.70
2018-07-23T00:23:21.613Z,4.00
2018-07-23T00:28:34.257Z,3.63
2018-07-23T00:31:17.280Z,3.50
2018-07-23T00:33:59.845Z,3.60
2018-07-23T00:36:42.717Z,3.70
2018-07-23T00:39:25.477Z,3.03
2018-07-23T00:42:08.443Z,3.17
2018-07-23T00:44:51.090Z,3.10
2018-07-23T00:47:33.906Z,2.87
2018-07-23T00:50:16.373Z,3.83
2018-07-23T00:52:59.161Z,3.50
2018-07-23T00:55:42.250Z,2.70
2018-07-23T00:58:24.930Z,3.50
2018-07-23T01:01:07.406Z,3.23
2018-07-23T01:03:50.148Z,3.40
2018-07-23T01:06:32.960Z,3.03
2018-07-23T01:09:15.698Z,3.30
2018-07-23T01:11:58.583Z,3.37
2018-07-23T01:14:41.459Z,3.53
2018-07-23T01:17:24.619Z,3.20
2018-07-23T01:20:07.101Z,3.40
2018-07-23T01:22:50.175Z,2.80
2018-07-23T01:25:33.149Z,3.13
2018-07-23T01:28:16.197Z,3.20
2018-07-23T01:30:59.286Z,3.17
2018-07-23T01:33:41.805Z,2.70
2018-07-23T01:36:24.963Z,3.00
2018-07-23T01:39:09.675Z,3.23
2018-07-23T01:41:52.501Z,3.67
2018-07-23T01:44:35.355Z,3.57
2018-07-23T01:47:17.688Z,3.00
2018-07-23T01:50:00.693Z,3.37
2018-07-23T01:52:43.809Z,2.90
2018-07-23T01:55:26.807Z,2.80
2018-07-23T01:58:09.562Z,3.00
2018-07-23T02:00:52.323Z,3.40
2018-07-23T02:03:35.022Z,3.00
2018-07-23T02:06:17.741Z,2.87
2018-07-23T02:09:00.582Z,3.10
2018-07-23T02:11:43.873Z,2.90
2018-07-23T02:14:26.197Z,2.90
2018-07-23T02:17:08.826Z,3.27
2018-07-23T02:19:51.577Z,2.77
2018-07-23T02:22:34.358Z,2.87
2018-07-23T02:25:17.297Z,3.27
2018-07-23T02:27:59.902Z,3.00
2018-07-23T02:30:42.543Z,3.30
2018-07-23T02:33:26.129Z,3.30
2018-07-23T02:36:09.059Z,4.90
2018-07-23T02:38:53.078Z,3.40
2018-07-23T02:41:35.683Z,3.00
2018-07-23T02:44:18.453Z,3.43
2018-07-23T02:47:01.306Z,3.07
2018-07-23T02:49:44.078Z,3.13
2018-07-23T02:52:26.851Z,2.87
2018-07-23T02:55:09.486Z,3.23
2018-07-23T02:57:52.450Z,3.00
2018-07-23T03:00:35.586Z,3.17
2018-07-23T03:03:18.662Z,3.00
2018-07-23T03:06:01.489Z,2.90
2018-07-23T03:08:44.359Z,3.50
2018-07-23T03:11:27.163Z,2.93
2018-07-23T03:14:10.346Z,2.97
2018-07-23T03:16:53.041Z,3.23
2018-07-23T03:19:36.040Z,2.93
2018-07-23T03:22:18.776Z,3.00
2018-07-23T03:25:01.538Z,3.00
2018-07-23T03:27:44.441Z,3.60
2018-07-23T03:30:27.171Z,3.10
2018-07-23T03:33:10.029Z,3.27
2018-07-23T03:35:52.883Z,3.70
2018-07-23T03:38:35.368Z,3.77
2018-07-23T03:41:18.410Z,3.20
2018-07-23T03:44:01.056Z,3.17
2018-07-23T03:46:43.855Z,3.40
2018-07-23T03:49:26.561Z,3.17
2018-07-23T03:52:08.794Z,3.40
2018-07-23T03:54:51.806Z,3.00
2018-07-23T03:57:34.687Z,3.20
2018-07-23T04:00:18.029Z,4.07
2018-07-23T04:03:01.311Z,3.87
2018-07-23T04:05:43.918Z,3.00
2018-07-23T04:08:26.713Z,2.60
2018-07-23T04:11:10.354Z,3.80
2018-07-23T04:13:53.338Z,3.43
2018-07-23T04:16:36.534Z,3.30
2018-07-23T04:19:19.503Z,3.50
2018-07-23T04:22:02.510Z,3.70
2018-07-23T04:24:46.193Z,3.80
2018-07-23T04:27:29.045Z,3.80
2018-07-23T04:30:17.904Z,5.77
2018-07-23T04:33:01.350Z,5.60
2018-07-23T04:35:44.110Z,5.93
2018-07-23T04:38:26.783Z,4.40
2018-07-23T04:41:09.408Z,5.03
2018-07-23T04:43:52.327Z,4.53
2018-07-23T04:46:35.333Z,4.30
2018-07-23T04:49:18.106Z,4.00
2018-07-23T04:52:00.963Z,5.77
2018-07-23T04:54:43.821Z,5.10
2018-07-23T04:57:26.203Z,6.20
2018-07-23T05:00:09.442Z,4.20
2018-07-23T05:02:52.699Z,4.93
2018-07-23T05:05:35.690Z,2.97
2018-07-23T05:08:18.553Z,4.40
2018-07-23T05:11:01.585Z,3.70
2018-07-23T05:13:44.582Z,2.70
2018-07-23T05:16:27.742Z,2.63
2018-07-23T05:19:10.541Z,2.43
2018-07-23T05:21:52.810Z,3.20
2018-07-23T05:24:35.268Z,4.93
2018-07-23T05:27:18.658Z,3.53
2018-07-23T05:30:01.128Z,4.13
2018-07-23T05:32:43.146Z,3.40
2018-07-23T05:35:25.751Z,2.53
2018-07-23T05:38:08.742Z,2.80
2018-07-23T05:40:52.059Z,3.93
2018-07-23T05:43:34.368Z,3.60
2018-07-23T05:46:17.724Z,4.50
2018-07-23T05:49:00.222Z,2.63
2018-07-23T05:51:43.670Z,3.23
2018-07-23T05:54:26.430Z,4.80
2018-07-23T05:57:09.872Z,4.60
2018-07-23T05:59:52.423Z,3.67
2018-07-23T06:02:34.943Z,2.63
2018-07-23T06:05:17.583Z,5.60
2018-07-23T06:08:00.177Z,5.30
2018-07-23T06:10:58.009Z,3.50
2018-07-23T06:13:41.194Z,3.40
2018-07-23T06:16:24.962Z,1.90
2018-07-23T06:19:08.190Z,2.00
2018-07-23T06:21:50.974Z,3.57
2018-07-23T06:24:33.862Z,2.83
2018-07-23T06:27:16.550Z,3.60
2018-07-23T06:29:59.733Z,2.58
2018-07-23T06:32:42.810Z,2.17
2018-07-23T06:35:25.433Z,1.80
2018-07-23T06:38:07.807Z,2.07
2018-07-23T06:40:51.129Z,2.53
2018-07-23T06:43:33.801Z,2.10
2018-07-23T06:46:16.538Z,2.07
2018-07-23T06:48:59.509Z,1.80
2018-07-23T06:51:42.056Z,2.33
2018-07-23T06:54:25.149Z,1.77
2018-07-23T06:57:08.137Z,2.23
2018-07-23T06:59:51.206Z,1.83
2018-07-23T07:02:34.129Z,1.90
2018-07-23T07:05:16.829Z,2.33
2018-07-23T07:07:59.751Z,2.60
2018-07-23T07:10:42.189Z,2.70
2018-07-23T07:13:29.763Z,2.87
2018-07-23T07:16:14.560Z,3.13
2018-07-23T07:18:58.984Z,3.07
2018-07-23T07:21:48.884Z,2.50
2018-07-23T07:24:34.083Z,2.50
2018-07-23T07:27:19.093Z,2.53
2018-07-23T07:30:02.278Z,1.85
2018-07-23T07:32:44.690Z,2.03
2018-07-23T07:35:27.423Z,2.57
2018-07-23T07:38:10.378Z,2.53
2018-07-23T07:40:53.162Z,2.20
2018-07-23T07:43:35.979Z,1.97
2018-07-23T07:46:18.757Z,1.82
2018-07-23T07:49:01.548Z,1.67
2018-07-23T07:51:44.658Z,2.40
2018-07-23T07:54:27.920Z,1.82
2018-07-23T07:57:11.653Z,2.15
2018-07-23T07:59:54.764Z,2.40
2018-07-23T08:02:37.749Z,2.60
2018-07-23T08:05:20.403Z,2.55
2018-07-23T08:08:03.509Z,2.02
2018-07-23T08:10:46.050Z,2.08
2018-07-23T08:13:28.829Z,2.00
2018-07-23T08:16:11.509Z,2.02
2018-07-23T08:18:54.824Z,2.00
2018-07-23T08:21:38.068Z,1.85
2018-07-23T08:24:20.803Z,2.00
2018-07-23T08:27:03.640Z,2.20
2018-07-23T08:29:46.372Z,1.80
2018-07-23T08:32:29.031Z,2.08
2018-07-23T08:35:12.710Z,2.00
2018-07-23T08:37:55.621Z,1.90
2018-07-23T08:40:39.014Z,2.00
2018-07-23T08:43:21.974Z,1.95
2018-07-23T08:46:04.608Z,1.70
2018-07-23T08:48:47.511Z,1.70
2018-07-23T08:51:30.190Z,1.95
2018-07-23T08:54:13.080Z,1.75
2018-07-23T08:56:56.984Z,2.25
2018-07-23T08:59:39.544Z,2.17
2018-07-23T09:02:22.472Z,1.85
2018-07-23T09:05:05.222Z,2.37
2018-07-23T09:07:48.338Z,1.82
2018-07-23T09:10:31.381Z,2.00
2018-07-23T09:13:14.298Z,2.00
2018-07-23T09:15:56.850Z,6.60
2018-07-23T09:18:39.495Z,2.40
2018-07-23T09:21:22.439Z,2.40
2018-07-23T09:24:05.196Z,2.00
2018-07-23T09:26:48.127Z,2.00
2018-07-23T09:29:30.643Z,2.10
2018-07-23T09:32:13.674Z,2.00
2018-07-23T09:34:56.947Z,2.92
2018-07-23T09:37:40.367Z,2.37
2018-07-23T09:40:23.078Z,2.30
2018-07-23T09:43:06.337Z,2.10
2018-07-23T09:45:48.817Z,3.22
2018-07-23T09:48:31.725Z,2.15
2018-07-23T09:51:16.837Z,2.72
2018-07-23T09:54:00.017Z,2.35
2018-07-23T09:56:43.100Z,2.70
2018-07-23T09:59:26.681Z,2.30
2018-07-23T10:02:09.332Z,2.00
2018-07-23T10:04:52.051Z,2.55
2018-07-23T10:07:36.821Z,2.65
2018-07-23T10:10:19.278Z,2.20
2018-07-23T10:13:02.633Z,2.02
2018-07-23T10:15:45.827Z,2.10
2018-07-23T10:18:29.458Z,2.00
2018-07-23T10:21:12.758Z,2.02
2018-07-23T10:23:56.250Z,3.02
2018-07-23T10:26:39.631Z,2.62
2018-07-23T10:29:22.317Z,6.75
2018-07-23T10:32:05.094Z,2.15
2018-07-23T10:34:47.922Z,5.67
2018-07-23T10:37:30.571Z,2.42
2018-07-23T10:40:13.544Z,2.30
2018-07-23T10:42:56.754Z,2.60
2018-07-23T10:45:39.068Z,4.42
2018-07-23T10:48:22.226Z,2.15
2018-07-23T10:51:04.913Z,2.10
2018-07-23T10:53:47.821Z,2.33
2018-07-23T10:56:30.602Z,2.45
2018-07-23T10:59:13.385Z,2.12
2018-07-23T11:01:56.282Z,1.87
2018-07-23T11:04:39.136Z,2.40
2018-07-23T11:10:35.824Z,2.40
2018-07-23T11:13:18.462Z,2.87
2018-07-23T11:16:01.032Z,4.62
2018-07-23T11:18:44.168Z,2.15
2018-07-23T11:21:26.818Z,2.47
2018-07-23T11:24:09.864Z,2.52
2018-07-23T11:26:52.663Z,2.10
2018-07-23T11:29:35.080Z,2.42
2018-07-23T11:32:17.989Z,2.70
2018-07-23T11:35:06.805Z,2.55
2018-07-23T11:37:49.289Z,2.33
2018-07-23T11:40:32.013Z,2.20
2018-07-23T11:43:14.261Z,2.27
2018-07-23T11:45:57.726Z,2.60
2018-07-23T11:48:40.307Z,2.60
2018-07-23T11:51:23.268Z,2.55
2018-07-23T11:54:06.398Z,3.05
2018-07-23T11:56:48.993Z,2.67
2018-07-23T11:59:31.755Z,2.72
2018-07-23T12:02:14.755Z,2.00
2018-07-23T12:04:57.287Z,2.40
2018-07-23T12:07:40.317Z,2.20
2018-07-23T12:10:22.834Z,3.02
2018-07-23T12:13:06.317Z,2.00
2018-07-23T12:15:49.406Z,2.70
2018-07-23T12:18:32.455Z,2.60
2018-07-23T12:21:15.734Z,2.50
2018-07-23T12:23:59.552Z,2.62
2018-07-23T12:26:42.037Z,2.42
2018-07-23T12:29:24.935Z,2.40
2018-07-23T12:32:07.889Z,2.52
2018-07-23T12:34:50.612Z,2.20
2018-07-23T12:37:33.403Z,3.05
2018-07-23T12:40:15.962Z,2.15
2018-07-23T12:42:59.123Z,2.45
2018-07-23T12:45:41.560Z,2.50
2018-07-23T12:48:24.238Z,2.50
2018-07-23T12:51:07.144Z,2.83
2018-07-23T12:53:49.818Z,2.15
2018-07-23T12:56:32.723Z,2.58
2018-07-23T12:59:16.856Z,2.47
2018-07-23T13:01:59.416Z,3.10
2018-07-23T13:04:42.107Z,3.30
2018-07-23T13:07:25.072Z,2.37
2018-07-23T13:10:07.976Z,2.70
2018-07-23T13:12:50.794Z,3.55
2018-07-23T13:15:33.624Z,2.30
2018-07-23T13:18:16.629Z,2.52
2018-07-23T13:20:59.349Z,2.47
2018-07-23T13:23:42.085Z,2.50
2018-07-23T13:26:25.112Z,2.52
2018-07-23T13:29:07.745Z,2.47
2018-07-23T13:31:50.651Z,2.10
2018-07-23T13:34:33.437Z,2.50
2018-07-23T13:37:16.136Z,3.37
2018-07-23T13:39:59.097Z,2.83
2018-07-23T13:42:41.793Z,2.65
2018-07-23T13:45:24.645Z,2.67
2018-07-23T13:48:07.558Z,2.95
2018-07-23T13:50:50.134Z,2.70
2018-07-23T13:53:33.298Z,2.98
2018-07-23T13:56:15.743Z,2.58
2018-07-23T13:58:58.606Z,3.00
2018-07-23T14:01:41.325Z,3.22
2018-07-23T14:04:24.144Z,2.77
2018-07-23T14:07:06.969Z,3.27
2018-07-23T14:09:49.741Z,3.10
2018-07-23T14:12:32.560Z,4.10
2018-07-23T14:15:15.567Z,3.33
2018-07-23T14:17:58.358Z,3.98
2018-07-23T14:20:41.135Z,3.80
2018-07-23T14:23:23.975Z,3.40
2018-07-23T14:26:06.925Z,3.90
2018-07-23T14:28:49.687Z,2.83
2018-07-23T14:31:33.923Z,3.15
2018-07-23T14:34:16.302Z,3.60
2018-07-23T14:36:58.940Z,3.60
2018-07-23T14:39:42.676Z,3.17
2018-07-23T14:42:25.675Z,3.65
2018-07-23T14:45:09.302Z,3.05
2018-07-23T14:47:52.993Z,3.95
2018-07-23T14:50:36.772Z,3.80
2018-07-23T14:53:20.284Z,3.27
2018-07-23T14:56:03.541Z,3.60
2018-07-23T14:58:46.460Z,3.30
2018-07-23T15:01:30.825Z,3.75
2018-07-23T15:04:13.995Z,3.30
2018-07-23T15:06:56.677Z,4.97
2018-07-23T15:09:39.518Z,4.25
2018-07-23T15:12:23.426Z,3.77
2018-07-23T15:15:06.147Z,4.05
2018-07-23T15:17:48.985Z,3.90
2018-07-23T15:20:32.346Z,3.92
2018-07-23T15:23:14.914Z,3.83
2018-07-23T15:25:58.309Z,3.70
2018-07-23T15:28:42.385Z,3.83
2018-07-23T15:31:25.617Z,3.50
2018-07-23T15:34:08.570Z,3.42
2018-07-23T15:36:50.938Z,3.10
2018-07-23T15:39:33.758Z,3.70
2018-07-23T15:42:16.810Z,3.83
2018-07-23T15:44:59.705Z,3.87
2018-07-23T15:47:42.351Z,4.15
2018-07-23T15:50:25.905Z,4.37
2018-07-23T15:53:08.414Z,4.35
2018-07-23T15:55:51.285Z,5.17
2018-07-23T15:58:33.949Z,4.75
2018-07-23T16:01:17.043Z,4.67
2018-07-23T16:03:59.815Z,4.85
2018-07-23T16:06:43.955Z,5.03
2018-07-23T16:09:27.622Z,4.53
2018-07-23T16:12:10.730Z,5.42
2018-07-23T16:14:54.105Z,4.97
2018-07-23T16:17:36.573Z,5.83
2018-07-23T16:20:19.131Z,5.87
2018-07-23T16:23:03.624Z,6.43
2018-07-23T16:25:47.373Z,5.83
2018-07-23T16:28:30.780Z,5.22
2018-07-23T16:31:13.263Z,6.10
2018-07-23T16:33:56.251Z,5.72
2018-07-23T16:36:38.694Z,5.67
2018-07-23T16:39:21.509Z,5.90
2018-07-23T16:42:04.057Z,5.37
2018-07-23T16:44:47.341Z,5.60
2018-07-23T16:47:31.109Z,6.43
2018-07-23T16:50:15.088Z,6.07
2018-07-23T16:52:58.378Z,6.20
2018-07-23T16:55:41.041Z,5.53
2018-07-23T16:58:24.353Z,6.20
2018-07-23T17:01:08.111Z,6.23
2018-07-23T17:03:51.251Z,7.03
2018-07-23T17:06:33.998Z,6.87
2018-07-23T17:09:16.693Z,7.03
2018-07-23T17:12:01.895Z,6.83
2018-07-23T17:14:45.841Z,7.17
2018-07-23T17:17:29.223Z,7.80
2018-07-23T17:20:13.308Z,7.40
2018-07-23T17:22:57.620Z,6.83
2018-07-23T17:25:41.145Z,7.50
2018-07-23T17:28:25.503Z,6.97
2018-07-23T17:31:09.034Z,7.73
2018-07-23T17:33:52.313Z,7.83
2018-07-23T17:36:36.210Z,8.27
2018-07-23T17:39:19.883Z,7.17
2018-07-23T17:42:03.123Z,7.63
2018-07-23T17:44:45.532Z,7.70
2018-07-23T17:47:28.888Z,7.20
2018-07-23T17:50:11.746Z,7.23
2018-07-23T17:52:54.575Z,6.70
2018-07-23T17:55:38.202Z,8.20
2018-07-23T17:58:22.503Z,6.90
2018-07-23T18:01:05.566Z,7.10
2018-07-23T18:03:48.565Z,5.90
2018-07-23T18:06:31.964Z,7.00
2018-07-23T18:09:14.766Z,6.83
2018-07-23T18:11:57.883Z,7.60
2018-07-23T18:14:40.621Z,7.50
2018-07-23T18:17:24.259Z,7.83
2018-07-23T18:20:07.147Z,7.10
2018-07-23T18:22:50.839Z,7.10
2018-07-23T18:25:35.134Z,7.30
2018-07-23T18:28:18.106Z,7.50
2018-07-23T18:31:01.087Z,7.10
2018-07-23T18:33:43.694Z,7.20
2018-07-23T18:36:26.511Z,7.03
2018-07-23T18:39:11.417Z,7.50
2018-07-23T18:41:54.526Z,7.20
2018-07-23T18:44:37.729Z,6.80
2018-07-23T18:47:22.395Z,6.80
2018-07-23T18:50:04.768Z,8.70
2018-07-23T18:52:47.978Z,7.60
2018-07-23T18:55:31.307Z,7.90
2018-07-23T18:58:14.646Z,7.73
2018-07-23T19:00:57.494Z,6.93
2018-07-23T19:03:40.066Z,7.27
2018-07-23T19:06:22.868Z,7.40
2018-07-23T19:09:08.791Z,7.70
2018-07-23T19:11:53.061Z,7.20
2018-07-23T19:14:35.873Z,7.00
2018-07-23T19:17:18.798Z,7.50
2018-07-23T19:20:01.690Z,7.47
2018-07-23T19:22:45.484Z,7.80
2018-07-23T19:25:29.169Z,7.17
2018-07-23T19:28:12.855Z,7.60
2018-07-23T19:30:56.645Z,7.23
2018-07-23T19:33:40.730Z,7.00
2018-07-23T19:36:25.496Z,7.67
2018-07-23T19:39:10.763Z,7.57
2018-07-23T19:41:54.262Z,7.57
2018-07-23T19:44:38.771Z,9.43
2018-07-23T19:47:21.640Z,7.40
2018-07-23T19:50:05.093Z,7.50
2018-07-23T19:52:47.821Z,7.30
2018-07-23T19:55:31.180Z,7.47
2018-07-23T19:58:14.857Z,8.10
2018-07-23T20:00:58.115Z,8.07
2018-07-23T20:03:42.468Z,7.20
2018-07-23T20:06:27.200Z,7.50
2018-07-23T20:09:11.383Z,7.40
2018-07-23T20:11:54.489Z,8.50
2018-07-23T20:14:38.525Z,8.00
2018-07-23T20:17:21.677Z,8.27
2018-07-23T20:20:05.226Z,8.23
2018-07-23T20:22:48.795Z,7.70
2018-07-23T20:25:33.078Z,7.57
2018-07-23T20:28:17.344Z,8.13
2018-07-23T20:31:00.928Z,8.37
2018-07-23T20:33:44.470Z,8.30
2018-07-23T20:36:27.060Z,7.67
2018-07-23T20:39:09.963Z,7.97
2018-07-23T20:41:54.019Z,7.97
2018-07-23T20:44:38.325Z,8.27
2018-07-23T20:47:21.628Z,7.00
2018-07-23T20:50:05.436Z,7.87
2018-07-23T20:52:49.325Z,7.87
2018-07-23T20:55:32.864Z,8.93
2018-07-23T20:58:16.587Z,8.37
2018-07-23T21:01:00.222Z,8.30
2018-07-23T21:03:43.966Z,8.70
2018-07-23T21:20:11.505Z,8.53
2018-07-23T21:22:55.514Z,9.07
2018-07-23T21:25:38.962Z,10.00
2018-07-23T21:28:22.590Z,8.87
2018-07-23T21:31:06.673Z,8.90
2018-07-23T21:33:51.329Z,9.20
2018-07-23T21:36:34.996Z,9.50
2018-07-23T21:39:18.703Z,10.30
2018-07-23T21:42:03.274Z,9.40
2018-07-23T21:44:46.566Z,8.90
2018-07-23T21:47:29.650Z,8.67
2018-07-23T21:50:12.901Z,9.03
2018-07-23T21:52:56.474Z,8.30
2018-07-23T21:55:39.674Z,8.57
2018-07-23T21:58:22.199Z,8.83
2018-07-23T22:01:05.537Z,9.60
2018-07-23T22:03:49.590Z,9.23
2018-07-23T22:06:33.742Z,10.00
2018-07-23T22:09:18.064Z,9.50
2018-07-23T22:12:01.545Z,9.77
2018-07-23T22:14:44.933Z,9.57
2018-07-23T22:17:27.542Z,8.97
2018-07-23T22:20:11.411Z,8.57
2018-07-23T22:22:54.548Z,9.00
2018-07-23T22:25:37.326Z,8.90
2018-07-23T22:28:19.935Z,9.27
2018-07-23T22:31:02.828Z,8.70
2018-07-23T22:33:45.413Z,9.97
2018-07-23T22:36:28.254Z,9.37
2018-07-23T22:39:12.113Z,9.20
2018-07-23T22:41:54.793Z,9.10
2018-07-23T22:44:37.465Z,9.40
2018-07-23T22:47:20.269Z,9.37
2018-07-23T22:50:02.863Z,9.10
2018-07-23T22:52:45.533Z,10.00
2018-07-23T22:55:28.638Z,9.30
2018-07-23T22:58:12.041Z,9.37
2018-07-23T23:00:54.666Z,8.70
2018-07-23T23:03:38.015Z,9.80
2018-07-23T23:06:21.000Z,8.60
2018-07-23T23:09:03.380Z,9.00
2018-07-23T23:11:46.708Z,9.00
2018-07-23T23:14:29.787Z,9.00
2018-07-23T23:17:12.550Z,9.17
2018-07-23T23:19:55.289Z,8.60
2018-07-23T23:22:37.974Z,9.30
2018-07-23T23:25:20.713Z,9.83
2018-07-23T23:28:03.837Z,9.57
2018-07-23T23:30:46.295Z,8.93
2018-07-23T23:33:29.860Z,8.87
2018-07-23T23:36:12.945Z,9.73
2018-07-23T23:38:56.326Z,8.70
2018-07-23T23:41:39.347Z,8.93
2018-07-23T23:44:22.793Z,9.30
2018-07-23T23:47:05.575Z,8.90
2018-07-23T23:49:48.477Z,8.70
2018-07-23T23:52:31.525Z,8.33
2018-07-23T23:55:14.860Z,7.80
2018-07-23T23:57:57.619Z,9.20
